createdAt,value
2022-12-15T00:02:10.567Z,17.93
2022-12-15T00:04:55.387Z,15.90
2022-12-15T00:07:40.248Z,16.50
2022-12-15T00:10:25.591Z,16.13
2022-12-15T00:13:10.923Z,14.90
2022-12-15T00:15:55.857Z,16.97
2022-12-15T00:18:40.834Z,16.77
2022-12-15T00:21:25.819Z,16.17
2022-12-15T00:24:10.605Z,17.50
2022-12-15T00:26:55.379Z,18.20
2022-12-15T00:29:40.624Z,16.80
2022-12-15T00:32:25.454Z,17.63
2022-12-15T00:35:10.188Z,16.93
2022-12-15T00:37:55.040Z,19.10
2022-12-15T00:40:21.486Z,17.10
2022-12-15T00:42:49.497Z,17.20
2022-12-15T00:45:16.683Z,18.37
2022-12-15T00:47:43.098Z,19.17
2022-12-15T00:50:28.574Z,17.70
2022-12-15T00:53:13.302Z,17.20
2022-12-15T00:55:58.113Z,17.60
2022-12-15T00:58:42.999Z,19.47
2022-12-15T01:01:29.404Z,18.37
2022-12-15T01:04:14.767Z,17.83
2022-12-15T01:06:59.860Z,19.87
2022-12-15T01:09:45.223Z,17.73
2022-12-15T01:12:30.020Z,18.10
2022-12-15T01:15:14.741Z,18.70
2022-12-15T01:17:59.716Z,18.47
2022-12-15T01:20:26.329Z,17.70
2022-12-15T01:22:56.027Z,19.07
2022-12-15T01:25:24.503Z,20.17
2022-12-15T01:27:51.476Z,18.37
2022-12-15T01:30:20.362Z,18.50
2022-12-15T01:32:46.826Z,18.93
2022-12-15T01:35:13.529Z,17.80
2022-12-15T01:37:40.137Z,18.33
2022-12-15T01:40:27.728Z,19.20
2022-12-15T01:42:54.277Z,20.47
2022-12-15T01:45:23.710Z,21.63
2022-12-15T01:48:00.760Z,23.60
2022-12-15T01:50:29.475Z,24.00
2022-12-15T01:52:55.935Z,23.57
2022-12-15T01:55:27.900Z,22.20
2022-12-15T01:57:59.666Z,21.77
2022-12-15T02:00:26.625Z,24.00
2022-12-15T02:02:54.198Z,24.30
2022-12-15T02:05:21.886Z,24.73
2022-12-15T02:07:48.337Z,24.43
2022-12-15T02:10:16.591Z,22.70
2022-12-15T02:12:45.907Z,23.43
2022-12-15T02:15:35.441Z,24.27
2022-12-15T02:18:21.506Z,25.10
2022-12-15T02:21:09.223Z,24.30
2022-12-15T02:23:50.824Z,23.13
2022-12-15T02:26:51.351Z,24.50
2022-12-15T02:29:50.124Z,24.13
2022-12-15T02:32:31.697Z,23.00
2022-12-15T02:35:10.838Z,23.33
2022-12-15T02:37:40.866Z,24.23
2022-12-15T02:40:10.126Z,21.43
2022-12-15T02:42:42.723Z,23.87
2022-12-15T02:45:15.755Z,24.17
2022-12-15T02:47:51.274Z,24.53
2022-12-15T02:50:47.628Z,26.60
2022-12-15T02:53:47.133Z,22.33
2022-12-15T02:56:39.170Z,22.20
2022-12-15T02:59:25.215Z,23.57
2022-12-15T03:02:06.075Z,24.37
2022-12-15T03:04:37.206Z,24.27
2022-12-15T03:07:08.099Z,26.17
2022-12-15T03:09:34.618Z,25.67
2022-12-15T03:12:01.140Z,24.40
2022-12-15T03:14:28.217Z,24.67
2022-12-15T03:16:55.359Z,25.30
2022-12-15T03:19:22.333Z,26.10
2022-12-15T03:21:48.778Z,23.93
2022-12-15T03:24:15.340Z,24.13
2022-12-15T03:26:42.052Z,24.17
2022-12-15T03:29:08.462Z,23.90
2022-12-15T03:31:34.959Z,22.20
2022-12-15T03:34:02.066Z,22.47
2022-12-15T03:36:28.489Z,22.87
2022-12-15T03:38:59.010Z,23.70
2022-12-15T03:41:25.542Z,22.67
2022-12-15T03:43:51.986Z,23.17
2022-12-15T03:46:18.418Z,22.40
2022-12-15T03:48:44.887Z,20.00
2022-12-15T03:51:11.438Z,23.53
2022-12-15T03:53:37.887Z,23.60
2022-12-15T03:56:04.461Z,23.43
2022-12-15T03:58:30.885Z,22.47
2022-12-15T04:00:57.417Z,22.20
2022-12-15T04:03:24.028Z,23.90
2022-12-15T04:05:50.869Z,21.47
2022-12-15T04:08:17.345Z,22.97
2022-12-15T04:10:43.809Z,22.40
2022-12-15T04:13:11.769Z,22.20
2022-12-15T04:15:39.633Z,23.60
2022-12-15T04:18:12.690Z,22.17
2022-12-15T04:20:40.477Z,23.67
2022-12-15T04:23:10.273Z,23.90
2022-12-15T04:25:55.482Z,24.00
2022-12-15T04:28:40.473Z,24.37
2022-12-15T04:31:31.955Z,24.20
2022-12-15T04:34:21.873Z,24.03
2022-12-15T04:37:10.334Z,23.57
2022-12-15T04:39:58.193Z,24.37
2022-12-15T04:42:43.994Z,25.23
2022-12-15T04:45:30.917Z,24.60
2022-12-15T04:48:15.748Z,25.90
2022-12-15T04:51:00.614Z,24.57
2022-12-15T04:53:45.571Z,26.03
2022-12-15T04:56:32.955Z,26.57
2022-12-15T04:59:18.822Z,24.67
2022-12-15T05:02:04.004Z,25.50
2022-12-15T05:04:49.251Z,27.07
2022-12-15T05:07:34.467Z,25.00
2022-12-15T05:10:19.430Z,26.10
2022-12-15T05:13:04.317Z,25.67
2022-12-15T05:15:51.612Z,28.80
2022-12-15T05:18:37.301Z,27.20
2022-12-15T05:21:22.470Z,26.90
2022-12-15T05:24:07.453Z,27.40
2022-12-15T05:26:53.160Z,28.30
2022-12-15T05:29:39.512Z,29.13
2022-12-15T05:32:07.177Z,33.40
2022-12-15T05:34:35.712Z,33.27
2022-12-15T05:37:04.179Z,33.83
2022-12-15T05:39:30.876Z,29.30
2022-12-15T05:41:57.395Z,33.53
2022-12-15T05:44:24.951Z,33.13
2022-12-15T05:46:51.489Z,31.03
2022-12-15T05:49:18.451Z,30.33
2022-12-15T05:51:47.561Z,29.07
2022-12-15T05:54:16.954Z,28.63
2022-12-15T05:56:43.807Z,31.67
2022-12-15T05:59:10.372Z,29.33
2022-12-15T06:01:37.027Z,30.97
2022-12-15T06:04:03.933Z,30.20
2022-12-15T06:06:30.426Z,27.80
2022-12-15T06:08:56.956Z,33.57
2022-12-15T06:11:23.574Z,35.00
2022-12-15T06:13:50.272Z,33.10
2022-12-15T06:16:19.539Z,35.43
2022-12-15T06:18:50.478Z,34.80
2022-12-15T06:21:19.673Z,33.57
2022-12-15T06:23:47.040Z,33.70
2022-12-15T06:26:19.302Z,30.73
2022-12-15T06:28:46.588Z,28.20
2022-12-15T06:31:14.429Z,27.20
2022-12-15T06:33:41.613Z,26.50
2022-12-15T06:36:13.291Z,27.00
2022-12-15T06:38:43.396Z,27.30
2022-12-15T06:41:12.131Z,27.17
2022-12-15T06:43:38.860Z,26.70
2022-12-15T06:46:05.885Z,25.60
2022-12-15T06:48:32.453Z,23.50
2022-12-15T06:51:05.035Z,26.97
2022-12-15T06:53:32.194Z,26.00
2022-12-15T06:56:02.089Z,24.90
2022-12-15T06:58:29.033Z,25.83
2022-12-15T07:00:56.166Z,24.80
2022-12-15T07:03:22.791Z,24.80
2022-12-15T07:05:59.960Z,23.87
2022-12-15T07:08:31.414Z,26.63
2022-12-15T07:10:59.684Z,24.77
2022-12-15T07:13:26.126Z,24.83
2022-12-15T07:15:52.712Z,26.70
2022-12-15T07:18:19.273Z,26.17
2022-12-15T07:20:45.773Z,23.93
2022-12-15T07:23:16.330Z,26.83
2022-12-15T07:25:42.802Z,26.80
2022-12-15T07:28:09.653Z,28.20
2022-12-15T07:30:38.883Z,29.00
2022-12-15T07:33:08.748Z,28.23
2022-12-15T07:35:35.246Z,26.77
2022-12-15T07:38:06.897Z,26.03
2022-12-15T07:40:33.770Z,28.50
2022-12-15T07:43:00.459Z,26.77
2022-12-15T07:45:27.016Z,26.33
2022-12-15T07:47:53.965Z,28.70
2022-12-15T07:50:20.424Z,26.33
2022-12-15T07:52:46.892Z,31.17
2022-12-15T07:55:13.383Z,27.50
2022-12-15T07:57:39.921Z,27.50
2022-12-15T08:00:09.124Z,28.57
2022-12-15T08:02:35.683Z,29.43
2022-12-15T08:05:02.263Z,27.90
2022-12-15T08:07:28.720Z,28.03
2022-12-15T08:09:55.163Z,29.23
2022-12-15T08:12:21.645Z,28.87
2022-12-15T08:14:50.173Z,29.67
2022-12-15T08:17:16.760Z,31.57
2022-12-15T08:19:43.627Z,32.03
2022-12-15T08:22:10.082Z,32.50
2022-12-15T08:24:36.531Z,31.80
2022-12-15T08:27:02.938Z,32.07
2022-12-15T08:32:15.930Z,33.77
2022-12-15T08:34:42.718Z,34.00
2022-12-15T08:37:09.180Z,31.80
2022-12-15T08:39:35.655Z,31.43
2022-12-15T08:42:02.116Z,34.97
2022-12-15T08:44:28.551Z,34.43
2022-12-15T08:46:55.003Z,33.73
2022-12-15T08:49:22.358Z,33.50
2022-12-15T08:51:50.718Z,33.40
2022-12-15T08:54:19.158Z,35.80
2022-12-15T08:56:45.606Z,33.17
2022-12-15T08:59:12.051Z,34.37
2022-12-15T09:01:40.367Z,35.00
2022-12-15T09:04:07.176Z,34.70
2022-12-15T09:06:35.684Z,35.67
2022-12-15T09:09:05.901Z,36.17
2022-12-15T09:11:32.399Z,36.60
2022-12-15T09:13:59.240Z,35.90
2022-12-15T09:16:27.745Z,33.67
2022-12-15T09:18:57.276Z,35.27
2022-12-15T09:21:26.722Z,35.70
2022-12-15T09:23:57.665Z,38.10
2022-12-15T09:26:24.181Z,36.83
2022-12-15T09:28:51.299Z,37.90
2022-12-15T09:31:28.257Z,35.40
2022-12-15T09:33:56.547Z,35.13
2022-12-15T09:36:23.805Z,38.00
2022-12-15T09:38:50.656Z,38.13
2022-12-15T09:41:20.673Z,36.27
2022-12-15T09:43:53.448Z,37.80
2022-12-15T09:46:38.974Z,38.60
2022-12-15T09:49:15.069Z,36.50
2022-12-15T09:51:50.546Z,37.80
2022-12-15T09:54:17.054Z,38.63
2022-12-15T09:56:58.084Z,38.60
2022-12-15T09:59:33.623Z,37.83
2022-12-15T10:02:19.481Z,38.00
2022-12-15T10:05:18.351Z,38.50
2022-12-15T10:07:46.505Z,36.80
2022-12-15T10:10:19.761Z,38.13
2022-12-15T10:12:55.503Z,38.03
2022-12-15T10:15:34.930Z,35.87
2022-12-15T10:18:18.814Z,37.40
2022-12-15T10:20:45.373Z,39.50
2022-12-15T10:23:17.432Z,38.37
2022-12-15T10:26:08.734Z,37.47
2022-12-15T10:29:02.937Z,39.97
2022-12-15T10:31:41.148Z,37.60
2022-12-15T10:34:21.848Z,40.37
2022-12-15T10:36:51.549Z,38.40
2022-12-15T10:39:18.385Z,38.80
2022-12-15T10:41:44.927Z,38.97
2022-12-15T10:44:31.896Z,39.77
2022-12-15T10:46:58.775Z,40.77
2022-12-15T10:49:25.336Z,39.50
2022-12-15T10:51:57.755Z,39.80
2022-12-15T10:54:30.661Z,42.07
2022-12-15T10:57:17.168Z,39.73
2022-12-15T10:59:43.622Z,37.27
2022-12-15T11:02:25.893Z,38.90
2022-12-15T11:05:00.194Z,35.97
2022-12-15T11:07:33.187Z,39.40
2022-12-15T11:10:01.814Z,38.50
2022-12-15T11:12:50.675Z,38.60
2022-12-15T11:15:23.139Z,38.20
2022-12-15T11:17:59.726Z,37.63
2022-12-15T11:20:35.396Z,40.10
2022-12-15T11:23:11.753Z,38.80
2022-12-15T11:25:49.334Z,38.07
2022-12-15T11:28:26.479Z,42.57
2022-12-15T11:31:00.202Z,39.00
2022-12-15T11:33:26.755Z,38.37
2022-12-15T11:35:56.894Z,40.20
2022-12-15T11:38:35.469Z,40.00
2022-12-15T11:41:22.036Z,39.33
2022-12-15T11:44:06.453Z,40.87
2022-12-15T11:46:46.134Z,37.87
2022-12-15T11:49:40.931Z,39.37
2022-12-15T11:52:26.017Z,39.77
2022-12-15T11:55:17.385Z,41.20
2022-12-15T11:57:50.521Z,39.30
2022-12-15T12:00:20.224Z,37.83
2022-12-15T12:03:36.550Z,39.70
2022-12-15T12:06:29.307Z,37.00
2022-12-15T12:09:17.488Z,39.80
2022-12-15T12:11:50.446Z,35.97
2022-12-15T12:14:50.651Z,40.80
2022-12-15T12:17:23.472Z,39.53
2022-12-15T12:19:57.928Z,38.20
2022-12-15T12:22:27.552Z,38.93
2022-12-15T12:25:02.243Z,37.47
2022-12-15T12:27:50.361Z,38.30
2022-12-15T12:30:20.820Z,40.00
2022-12-15T12:33:15.579Z,38.03
2022-12-15T12:36:00.352Z,37.73
2022-12-15T12:38:37.232Z,37.60
2022-12-15T12:41:10.959Z,38.27
2022-12-15T12:43:50.228Z,38.20
2022-12-15T12:46:39.951Z,36.83
2022-12-15T12:49:33.130Z,36.80
2022-12-15T12:52:04.106Z,38.10
2022-12-15T12:54:36.902Z,37.90
2022-12-15T12:57:12.684Z,37.40
2022-12-15T12:59:48.942Z,36.87
2022-12-15T13:02:15.704Z,35.00
2022-12-15T13:04:49.363Z,33.10
2022-12-15T13:07:40.947Z,35.60
2022-12-15T13:10:07.690Z,35.30
2022-12-15T13:12:54.449Z,34.93
2022-12-15T13:15:27.257Z,33.67
2022-12-15T13:18:09.393Z,34.67
2022-12-15T13:20:38.074Z,33.10
2022-12-15T13:23:19.779Z,35.37
2022-12-15T13:26:02.169Z,34.77
2022-12-15T13:28:42.830Z,34.57
2022-12-15T13:31:21.882Z,30.90
2022-12-15T13:34:01.116Z,30.33
2022-12-15T13:36:36.691Z,30.13
2022-12-15T13:39:12.379Z,28.97
2022-12-15T13:44:54.831Z,26.47
2022-12-15T13:47:40.331Z,27.40
2022-12-15T13:50:28.620Z,25.77
2022-12-15T13:55:59.002Z,25.90
2022-12-15T13:58:28.245Z,26.10
2022-12-15T14:00:56.896Z,25.33
2022-12-15T14:03:24.433Z,25.40
2022-12-15T14:05:59.367Z,26.43
2022-12-15T14:08:28.439Z,26.87
2022-12-15T14:33:18.017Z,31.23
2022-12-15T14:35:49.754Z,33.50
2022-12-15T14:38:21.321Z,33.47
2022-12-15T14:40:51.630Z,33.07
2022-12-15T14:43:24.776Z,32.97
2022-12-15T14:45:56.981Z,33.23
2022-12-15T14:48:42.661Z,35.60
2022-12-15T14:51:12.692Z,32.20
2022-12-15T14:53:41.868Z,34.27
2022-12-15T14:56:25.691Z,33.17
2022-12-15T14:59:05.877Z,32.20
2022-12-15T15:01:58.801Z,32.90
2022-12-15T15:03:11.193Z,26.33
2022-12-15T15:04:30.423Z,32.87
2022-12-15T15:07:00.252Z,34.40
2022-12-15T15:09:32.046Z,37.87
2022-12-15T15:12:07.845Z,40.10
2022-12-15T15:14:42.794Z,38.60
2022-12-15T15:17:36.524Z,35.87
2022-12-15T15:20:06.758Z,37.60
2022-12-15T15:22:40.980Z,36.17
2022-12-15T15:25:41.574Z,33.87
2022-12-15T15:28:27.158Z,34.63
2022-12-15T15:31:08.889Z,37.30
2022-12-15T15:33:38.148Z,34.00
2022-12-15T15:36:10.228Z,34.27
2022-12-15T15:38:41.428Z,35.37
2022-12-15T15:41:21.506Z,35.83
2022-12-15T15:43:48.216Z,35.43
2022-12-15T15:46:18.683Z,34.57
2022-12-15T15:48:50.518Z,35.97
2022-12-15T15:51:17.632Z,37.10
2022-12-15T15:53:45.210Z,38.23
2022-12-15T15:56:14.774Z,42.70
2022-12-15T15:58:43.686Z,46.03
2022-12-15T16:01:13.409Z,42.70
2022-12-15T16:03:40.528Z,41.17
2022-12-15T16:06:16.320Z,40.30
2022-12-15T16:08:43.451Z,37.33
2022-12-15T16:11:12.821Z,38.63
2022-12-15T16:13:39.418Z,40.70
2022-12-15T16:16:06.964Z,38.93
2022-12-15T16:18:33.968Z,39.67
2022-12-15T16:21:00.811Z,39.40
2022-12-15T16:23:29.222Z,37.40
2022-12-15T16:26:00.300Z,41.60
2022-12-15T16:28:29.213Z,39.53
2022-12-15T16:30:58.367Z,39.57
2022-12-15T16:33:25.757Z,38.40
2022-12-15T16:35:53.237Z,35.30
2022-12-15T16:38:27.524Z,36.13
2022-12-15T16:40:55.248Z,37.10
2022-12-15T16:43:24.591Z,37.43
2022-12-15T16:45:53.087Z,37.33
2022-12-15T16:48:20.236Z,38.37
2022-12-15T16:50:53.267Z,39.20
2022-12-15T16:53:33.173Z,41.50
2022-12-15T16:56:13.786Z,40.60
2022-12-15T16:58:40.276Z,40.30
2022-12-15T17:01:06.749Z,40.27
2022-12-15T17:03:33.617Z,39.40
2022-12-15T17:06:06.552Z,38.67
2022-12-15T17:08:43.540Z,38.90
2022-12-15T17:11:22.181Z,40.07
2022-12-15T17:13:51.318Z,39.77
2022-12-15T17:16:23.661Z,38.60
2022-12-15T17:18:51.446Z,39.57
2022-12-15T17:21:26.469Z,38.33
2022-12-15T17:23:58.220Z,39.80
2022-12-15T17:26:29.649Z,38.37
2022-12-15T17:29:01.103Z,38.00
2022-12-15T17:31:34.797Z,37.30
2022-12-15T17:34:08.441Z,35.97
2022-12-15T17:36:35.050Z,38.30
2022-12-15T17:39:01.811Z,39.70
2022-12-15T17:41:58.025Z,42.57
2022-12-15T17:44:39.300Z,43.83
2022-12-15T17:47:08.429Z,43.60
2022-12-15T17:49:37.712Z,42.00
2022-12-15T17:52:27.826Z,41.77
2022-12-15T17:54:55.010Z,39.13
2022-12-15T17:57:21.490Z,36.77
2022-12-15T17:59:48.451Z,38.00
2022-12-15T18:02:15.376Z,37.80
2022-12-15T18:04:42.986Z,36.07
2022-12-15T18:07:21.628Z,35.83
2022-12-15T18:09:50.172Z,36.73
2022-12-15T18:12:20.421Z,38.97
2022-12-15T18:14:47.769Z,39.50
2022-12-15T18:17:14.298Z,42.03
2022-12-15T18:19:40.810Z,42.07
2022-12-15T18:22:24.123Z,39.03
2022-12-15T18:24:52.822Z,37.37
2022-12-15T18:27:28.332Z,37.00
2022-12-15T18:29:56.417Z,45.77
2022-12-15T18:32:26.254Z,43.87
2022-12-15T18:34:53.811Z,47.27
2022-12-15T18:37:23.133Z,34.27
2022-12-15T18:39:50.597Z,35.10
2022-12-15T18:42:21.810Z,39.97
2022-12-15T18:44:51.170Z,44.53
2022-12-15T18:47:19.818Z,40.30
2022-12-15T18:49:46.475Z,39.47
2022-12-15T18:52:22.194Z,38.27
2022-12-15T18:54:50.303Z,40.37
2022-12-15T18:57:28.990Z,36.50
2022-12-15T19:00:01.654Z,38.93
2022-12-15T19:02:28.367Z,37.53
2022-12-15T19:04:54.927Z,40.23
2022-12-15T19:07:21.510Z,39.90
2022-12-15T19:09:49.508Z,39.43
2022-12-15T19:12:19.854Z,36.50
2022-12-15T19:14:48.913Z,33.30
2022-12-15T19:17:36.489Z,39.20
2022-12-15T19:20:25.765Z,38.00
2022-12-15T19:22:52.424Z,35.50
2022-12-15T19:25:26.654Z,33.97
2022-12-15T19:28:01.140Z,32.73
2022-12-15T19:30:30.435Z,33.50
2022-12-15T19:32:57.628Z,35.07
2022-12-15T19:35:24.839Z,38.00
2022-12-15T19:37:55.063Z,36.03
2022-12-15T19:40:28.402Z,36.10
2022-12-15T19:42:55.468Z,33.47
2022-12-15T19:45:31.204Z,36.57
2022-12-15T19:47:58.519Z,33.60
2022-12-15T19:50:31.530Z,34.10
2022-12-15T19:53:00.981Z,35.93
2022-12-15T19:55:33.631Z,35.23
2022-12-15T19:58:05.551Z,34.70
2022-12-15T20:00:31.975Z,36.10
2022-12-15T20:02:58.511Z,34.80
2022-12-15T20:05:25.651Z,33.83
2022-12-15T20:07:53.723Z,34.70
2022-12-15T20:10:31.967Z,36.00
2022-12-15T20:12:59.782Z,34.17
2022-12-15T20:15:26.612Z,34.73
2022-12-15T20:17:56.445Z,36.03
2022-12-15T20:20:25.659Z,35.57
2022-12-15T20:22:55.271Z,35.10
2022-12-15T20:25:28.741Z,32.00
2022-12-15T20:27:56.744Z,31.37
2022-12-15T20:30:26.543Z,34.97
2022-12-15T20:32:53.298Z,40.20
2022-12-15T20:35:21.779Z,32.63
2022-12-15T20:37:49.151Z,33.23
2022-12-15T20:40:21.913Z,31.17
2022-12-15T20:42:49.201Z,32.87
2022-12-15T20:45:18.058Z,31.47
2022-12-15T20:47:46.718Z,36.37
2022-12-15T20:50:36.244Z,33.47
2022-12-15T20:53:03.741Z,32.07
2022-12-15T20:55:31.405Z,30.77
2022-12-15T20:57:57.841Z,31.70
2022-12-15T21:00:24.282Z,31.17
2022-12-15T21:02:52.125Z,32.97
2022-12-15T21:05:24.448Z,31.53
2022-12-15T21:07:51.922Z,30.10
2022-12-15T21:10:21.042Z,31.63
2022-12-15T21:12:49.353Z,32.67
2022-12-15T21:15:22.130Z,33.17
2022-12-15T21:18:19.669Z,30.90
2022-12-15T21:20:41.366Z,31.90
2022-12-15T21:23:42.433Z,33.70
2022-12-15T21:26:10.471Z,32.07
2022-12-15T21:28:36.945Z,31.60
2022-12-15T21:31:03.668Z,30.40
2022-12-15T21:33:30.132Z,31.07
2022-12-15T21:35:56.704Z,31.07
2022-12-15T21:38:31.460Z,31.07
2022-12-15T21:41:00.626Z,30.43
2022-12-15T21:43:30.764Z,32.60
2022-12-15T21:45:58.224Z,31.53
2022-12-15T21:48:43.309Z,31.70
2022-12-15T21:51:13.559Z,30.20
2022-12-15T21:53:40.349Z,32.30
2022-12-15T21:56:07.104Z,29.40
2022-12-15T21:58:35.038Z,29.90
2022-12-15T22:01:01.825Z,31.30
2022-12-15T22:03:28.463Z,30.27
2022-12-15T22:05:54.865Z,32.13
2022-12-15T22:08:22.339Z,32.73
2022-12-15T22:10:50.966Z,34.17
2022-12-15T22:13:22.768Z,34.73
2022-12-15T22:15:53.010Z,31.97
2022-12-15T22:18:22.424Z,29.70
2022-12-15T22:20:50.407Z,29.97
2022-12-15T22:23:18.459Z,29.03
2022-12-15T22:25:51.124Z,29.33
2022-12-15T22:28:26.017Z,30.87
2022-12-15T22:30:54.030Z,28.73
2022-12-15T22:33:23.996Z,29.13
2022-12-15T22:35:52.108Z,30.13
2022-12-15T22:38:20.244Z,31.30
2022-12-15T22:40:53.517Z,29.90
2022-12-15T22:43:29.343Z,29.90
2022-12-15T22:45:56.181Z,30.77
2022-12-15T22:48:27.050Z,29.70
2022-12-15T22:50:53.474Z,30.57
2022-12-15T22:53:21.964Z,29.53
2022-12-15T22:55:49.591Z,29.07
2022-12-15T22:58:24.889Z,29.43
2022-12-15T23:00:54.949Z,31.43
2022-12-15T23:03:21.553Z,28.70
2022-12-15T23:05:48.495Z,30.03
2022-12-15T23:08:16.096Z,29.90
2022-12-15T23:11:01.260Z,32.10
2022-12-15T23:13:27.728Z,31.53
2022-12-15T23:16:12.934Z,32.37
2022-12-15T23:18:39.558Z,32.27
2022-12-15T23:21:07.916Z,31.80
2022-12-15T23:23:35.468Z,35.00
2022-12-15T23:26:02.922Z,33.57
2022-12-15T23:28:29.401Z,32.57
2022-12-15T23:30:55.968Z,33.37
2022-12-15T23:33:24.865Z,32.73
2022-12-15T23:35:56.288Z,32.17
2022-12-15T23:38:23.487Z,33.30
2022-12-15T23:40:53.062Z,32.50
2022-12-15T23:43:20.735Z,34.87
2022-12-15T23:45:56.973Z,34.47
2022-12-15T23:48:24.312Z,33.30
2022-12-15T23:50:50.724Z,34.73
2022-12-15T23:53:17.336Z,34.90
2022-12-15T23:55:43.854Z,31.77
2022-12-15T23:58:10.304Z,33.37
